AAL2040 SKCL-KDFW
Flight info
| Callsign | AAL2040 |
|---|---|
| Flight time | 5h 13m |
| Altitude | 32000 |
| Route | ASIK1D ASIKO OMIRO UM782 CUN LERUV OTIPO WAHOO POWND BEREE3 |
| Aircraft | B738/M-VGDW/C |
Departure
| Time | 2026-05-04 19:47 |
|---|---|
| Airport | Alfonso Bonilla Aragon International Airport (SKCL) |
Arrival
| Time | 2026-05-05 01:01 |
|---|---|
| Airport | Dallas Fort Worth International Airport (KDFW) |
| Time | Latitude | Longitude | Altitude | Speed | Heading |
|---|---|---|---|---|---|
| 2026-05-04 19:36 | 3.53832 | -76.38710 | 3163 ft | 0 kts | 272° |
| 2026-05-04 19:38 | 3.53832 | -76.38697 | 3163 ft | 4 kts | 270° |
| 2026-05-04 19:38 | 3.53834 | -76.38670 | 3163 ft | 4 kts | 260° |
| 2026-05-04 19:38 | 3.53839 | -76.38647 | 3165 ft | 3 kts | 253° |
| 2026-05-04 19:38 | 3.53846 | -76.38637 | 3166 ft | 4 kts | 168° |
| 2026-05-04 19:39 | 3.53871 | -76.38644 | 3163 ft | 4 kts | 155° |
| 2026-05-04 19:39 | 3.53894 | -76.38658 | 3165 ft | 4 kts | 142° |
| 2026-05-04 19:39 | 3.53903 | -76.38665 | 3166 ft | 0 kts | 141° |
| 2026-05-04 19:41 | 3.53902 | -76.38664 | 3166 ft | 1 kts | 141° |
| 2026-05-04 19:42 | 3.53878 | -76.38645 | 3163 ft | 8 kts | 142° |
| 2026-05-04 19:42 | 3.53831 | -76.38610 | 3164 ft | 8 kts | 141° |
| 2026-05-04 19:42 | 3.53784 | -76.38577 | 3164 ft | 8 kts | 148° |
| 2026-05-04 19:42 | 3.53736 | -76.38548 | 3163 ft | 8 kts | 151° |
| 2026-05-04 19:43 | 3.53676 | -76.38515 | 3164 ft | 12 kts | 153° |
| 2026-05-04 19:43 | 3.53586 | -76.38482 | 3162 ft | 16 kts | 162° |
| 2026-05-04 19:43 | 3.53477 | -76.38481 | 3162 ft | 16 kts | 189° |
| 2026-05-04 19:43 | 3.53371 | -76.38499 | 3162 ft | 15 kts | 189° |
| 2026-05-04 19:44 | 3.53271 | -76.38516 | 3161 ft | 14 kts | 190° |
| 2026-05-04 19:44 | 3.53174 | -76.38534 | 3161 ft | 14 kts | 190° |
| 2026-05-04 19:44 | 3.53081 | -76.38550 | 3161 ft | 13 kts | 190° |
| 2026-05-04 19:44 | 3.52995 | -76.38552 | 3162 ft | 12 kts | 142° |
| 2026-05-04 19:45 | 3.52980 | -76.38471 | 3160 ft | 12 kts | 76° |
| 2026-05-04 19:45 | 3.52997 | -76.38417 | 3159 ft | 3 kts | 95° |
| 2026-05-04 19:45 | 3.53005 | -76.38401 | 3160 ft | 3 kts | 45° |
| 2026-05-04 19:45 | 3.53022 | -76.38393 | 3159 ft | 3 kts | 19° |
| 2026-05-04 19:46 | 3.53029 | -76.38392 | 3159 ft | 0 kts | 8° |
| 2026-05-04 19:46 | 3.53073 | -76.38384 | 3159 ft | 24 kts | 10° |
| 2026-05-04 19:46 | 3.53462 | -76.38318 | 3163 ft | 88 kts | 9° |
| 2026-05-04 19:47 | 3.54250 | -76.38182 | 3168 ft | 143 kts | 10° |
| 2026-05-04 19:47 | 3.55371 | -76.37985 | 3325 ft | 173 kts | 12° |
| 2026-05-04 19:47 | 3.56597 | -76.37761 | 3876 ft | 183 kts | 10° |
| 2026-05-04 19:47 | 3.57885 | -76.37545 | 4436 ft | 194 kts | 8° |
| 2026-05-04 19:48 | 3.59286 | -76.37330 | 4760 ft | 210 kts | 8° |
| 2026-05-04 19:48 | 3.60747 | -76.37091 | 5135 ft | 214 kts | 8° |
| 2026-05-04 19:48 | 3.62203 | -76.36849 | 5576 ft | 213 kts | 8° |
| 2026-05-04 19:48 | 3.63689 | -76.36693 | 5962 ft | 215 kts | 352° |
| 2026-05-04 19:49 | 3.65067 | -76.37287 | 6271 ft | 225 kts | 320° |
| 2026-05-04 19:49 | 3.66245 | -76.38373 | 6567 ft | 235 kts | 316° |
| 2026-05-04 19:49 | 3.67437 | -76.39478 | 6931 ft | 238 kts | 317° |
| 2026-05-04 19:49 | 3.68673 | -76.40577 | 7367 ft | 239 kts | 319° |
| 2026-05-04 19:50 | 3.69973 | -76.41709 | 7523 ft | 254 kts | 319° |
| 2026-05-04 19:50 | 3.71285 | -76.42948 | 7810 ft | 264 kts | 308° |
| 2026-05-04 19:50 | 3.72092 | -76.44658 | 7927 ft | 281 kts | 283° |
| 2026-05-04 19:50 | 3.72419 | -76.46607 | 8326 ft | 291 kts | 277° |
| 2026-05-04 19:51 | 3.72675 | -76.48628 | 8956 ft | 293 kts | 277° |
| 2026-05-04 19:51 | 3.72951 | -76.50664 | 9548 ft | 297 kts | 278° |
| 2026-05-04 19:51 | 3.73268 | -76.52729 | 10092 ft | 302 kts | 279° |
| 2026-05-04 19:51 | 3.73608 | -76.54794 | 10620 ft | 305 kts | 279° |
| 2026-05-04 19:52 | 3.73964 | -76.56906 | 11173 ft | 309 kts | 279° |
| 2026-05-04 19:52 | 3.74422 | -76.59016 | 11718 ft | 312 kts | 292° |
| 2026-05-04 19:52 | 3.75598 | -76.60834 | 12207 ft | 314 kts | 317° |
| 2026-05-04 19:52 | 3.77355 | -76.62104 | 12732 ft | 316 kts | 330° |
| 2026-05-04 19:53 | 3.79274 | -76.63218 | 13238 ft | 321 kts | 332° |
| 2026-05-04 19:53 | 3.81239 | -76.64321 | 13779 ft | 324 kts | 332° |
| 2026-05-04 19:53 | 3.83217 | -76.65428 | 14264 ft | 328 kts | 332° |
| 2026-05-04 19:53 | 3.85263 | -76.66578 | 14362 ft | 346 kts | 332° |
| 2026-05-04 19:54 | 3.87402 | -76.67788 | 14491 ft | 361 kts | 332° |
| 2026-05-04 19:54 | 3.89637 | -76.69064 | 14572 ft | 375 kts | 332° |
| 2026-05-04 19:54 | 3.91914 | -76.70367 | 14653 ft | 389 kts | 331° |
| 2026-05-04 19:54 | 3.94306 | -76.71741 | 14760 ft | 401 kts | 331° |
| 2026-05-04 19:55 | 3.96767 | -76.73156 | 14889 ft | 411 kts | 331° |
| 2026-05-04 19:55 | 3.99264 | -76.74595 | 15186 ft | 415 kts | 331° |
| 2026-05-04 19:55 | 4.01774 | -76.76041 | 15588 ft | 416 kts | 331° |
| 2026-05-04 19:55 | 4.04258 | -76.77472 | 16015 ft | 416 kts | 331° |
| 2026-05-04 19:56 | 4.06781 | -76.78925 | 16404 ft | 418 kts | 331° |
| 2026-05-04 19:56 | 4.09315 | -76.80384 | 16755 ft | 421 kts | 331° |
| 2026-05-04 19:56 | 4.11869 | -76.81854 | 17084 ft | 423 kts | 331° |
| 2026-05-04 19:56 | 4.14430 | -76.83328 | 17417 ft | 426 kts | 331° |
| 2026-05-04 19:57 | 4.17004 | -76.84811 | 17769 ft | 428 kts | 331° |
| 2026-05-04 19:57 | 4.19597 | -76.86305 | 18116 ft | 430 kts | 332° |
| 2026-05-04 19:57 | 4.22168 | -76.87785 | 18413 ft | 432 kts | 331° |
| 2026-05-04 19:57 | 4.24793 | -76.89292 | 18676 ft | 434 kts | 332° |
| 2026-05-04 19:58 | 4.27468 | -76.90731 | 18946 ft | 436 kts | 334° |
| 2026-05-04 19:58 | 4.30190 | -76.92115 | 19230 ft | 438 kts | 335° |
| 2026-05-04 19:58 | 4.32896 | -76.93463 | 19502 ft | 439 kts | 335° |
| 2026-05-04 19:58 | 4.35649 | -76.94830 | 19769 ft | 441 kts | 335° |
| 2026-05-04 19:59 | 4.38378 | -76.96193 | 20036 ft | 443 kts | 335° |
| 2026-05-04 19:59 | 4.41141 | -76.97581 | 20298 ft | 445 kts | 334° |
| 2026-05-04 19:59 | 4.43920 | -76.98985 | 20563 ft | 446 kts | 334° |
| 2026-05-04 19:59 | 4.46698 | -77.00394 | 20812 ft | 448 kts | 334° |
| 2026-05-04 20:00 | 4.49492 | -77.01815 | 21070 ft | 450 kts | 334° |
| 2026-05-04 20:00 | 4.52288 | -77.03238 | 21313 ft | 452 kts | 334° |
| 2026-05-04 20:00 | 4.55070 | -77.04656 | 21541 ft | 453 kts | 334° |
| 2026-05-04 20:00 | 4.57897 | -77.06096 | 21791 ft | 455 kts | 334° |
| 2026-05-04 20:01 | 4.60733 | -77.07542 | 22039 ft | 456 kts | 334° |
| 2026-05-04 20:01 | 4.63543 | -77.08974 | 22250 ft | 458 kts | 334° |
| 2026-05-04 20:01 | 4.66394 | -77.10426 | 22471 ft | 460 kts | 334° |
| 2026-05-04 20:01 | 4.69261 | -77.11887 | 22691 ft | 462 kts | 334° |
| 2026-05-04 20:02 | 4.72133 | -77.13350 | 22911 ft | 463 kts | 334° |
| 2026-05-04 20:02 | 4.74983 | -77.14803 | 23108 ft | 465 kts | 334° |
| 2026-05-04 20:02 | 4.77876 | -77.16277 | 23308 ft | 466 kts | 334° |
| 2026-05-04 20:02 | 4.80784 | -77.17759 | 23505 ft | 468 kts | 334° |
| 2026-05-04 20:03 | 4.83689 | -77.19240 | 23667 ft | 469 kts | 334° |
| 2026-05-04 20:03 | 4.86609 | -77.20728 | 23842 ft | 470 kts | 334° |
| 2026-05-04 20:03 | 4.89536 | -77.22221 | 24009 ft | 471 kts | 334° |
| 2026-05-04 20:03 | 4.92432 | -77.23697 | 24164 ft | 472 kts | 334° |
| 2026-05-04 20:04 | 4.95373 | -77.25197 | 24321 ft | 474 kts | 334° |
| 2026-05-04 20:04 | 4.98321 | -77.26700 | 24472 ft | 475 kts | 334° |
| 2026-05-04 20:04 | 5.01267 | -77.28203 | 24640 ft | 476 kts | 334° |
| 2026-05-04 20:04 | 5.04227 | -77.29713 | 24795 ft | 477 kts | 334° |
| 2026-05-04 20:05 | 5.07192 | -77.31225 | 24946 ft | 478 kts | 334° |
| 2026-05-04 20:05 | 5.10126 | -77.32722 | 25091 ft | 479 kts | 334° |
| 2026-05-04 20:05 | 5.13114 | -77.34247 | 25240 ft | 480 kts | 334° |
| 2026-05-04 20:05 | 5.16098 | -77.35769 | 25379 ft | 481 kts | 334° |
| 2026-05-04 20:06 | 5.19095 | -77.37299 | 25520 ft | 482 kts | 334° |
| 2026-05-04 20:06 | 5.22052 | -77.38808 | 25656 ft | 483 kts | 334° |
| 2026-05-04 20:06 | 5.25056 | -77.40341 | 25784 ft | 484 kts | 334° |
| 2026-05-04 20:06 | 5.28078 | -77.41884 | 25911 ft | 486 kts | 334° |
| 2026-05-04 20:07 | 5.31095 | -77.43424 | 26039 ft | 487 kts | 334° |
| 2026-05-04 20:07 | 5.34092 | -77.44955 | 26151 ft | 488 kts | 334° |
| 2026-05-04 20:07 | 5.37128 | -77.46505 | 26279 ft | 489 kts | 334° |
| 2026-05-04 20:07 | 5.40170 | -77.48059 | 26388 ft | 490 kts | 334° |
| 2026-05-04 20:08 | 5.43213 | -77.49613 | 26528 ft | 491 kts | 334° |
| 2026-05-04 20:08 | 5.45236 | -77.50646 | 26623 ft | 491 kts | 334° |
| 2026-05-04 20:08 | 5.49277 | -77.52711 | 26801 ft | 492 kts | 334° |
| 2026-05-04 20:08 | 5.52343 | -77.54278 | 26923 ft | 492 kts | 334° |
| 2026-05-04 20:09 | 5.54372 | -77.55315 | 27000 ft | 493 kts | 334° |
| 2026-05-04 20:09 | 5.57423 | -77.56874 | 27160 ft | 492 kts | 334° |
| 2026-05-04 20:09 | 5.60478 | -77.58435 | 27368 ft | 491 kts | 334° |
| 2026-05-04 20:09 | 5.63527 | -77.59994 | 27579 ft | 490 kts | 334° |
| 2026-05-04 20:10 | 5.66531 | -77.61530 | 27732 ft | 490 kts | 334° |
| 2026-05-04 20:10 | 5.69570 | -77.63084 | 27895 ft | 490 kts | 334° |
| 2026-05-04 20:10 | 5.72612 | -77.64639 | 28085 ft | 489 kts | 334° |
| 2026-05-04 20:10 | 5.75644 | -77.66190 | 28281 ft | 488 kts | 334° |
| 2026-05-04 20:11 | 5.78671 | -77.67738 | 28450 ft | 488 kts | 334° |
| 2026-05-04 20:11 | 5.81703 | -77.69289 | 28618 ft | 488 kts | 333° |
| 2026-05-04 20:11 | 5.84698 | -77.70822 | 28793 ft | 488 kts | 333° |
| 2026-05-04 20:11 | 5.87724 | -77.72370 | 28989 ft | 487 kts | 333° |
| 2026-05-04 20:12 | 5.90745 | -77.73916 | 29160 ft | 487 kts | 333° |
| 2026-05-04 20:12 | 5.93771 | -77.75464 | 29326 ft | 487 kts | 333° |
| 2026-05-04 20:12 | 5.96795 | -77.77012 | 29497 ft | 487 kts | 333° |
| 2026-05-04 20:12 | 5.99825 | -77.78564 | 29693 ft | 487 kts | 333° |
| 2026-05-04 20:13 | 6.02846 | -77.80110 | 29857 ft | 487 kts | 333° |
| 2026-05-04 20:13 | 6.05831 | -77.81639 | 30007 ft | 487 kts | 333° |
| 2026-05-04 20:13 | 6.08851 | -77.83185 | 30155 ft | 487 kts | 333° |
| 2026-05-04 20:13 | 6.11887 | -77.84740 | 30305 ft | 487 kts | 333° |
| 2026-05-04 20:14 | 6.14907 | -77.86287 | 30457 ft | 487 kts | 333° |
| 2026-05-04 20:14 | 6.17894 | -77.87817 | 30602 ft | 487 kts | 333° |
| 2026-05-04 20:14 | 6.20913 | -77.89364 | 30745 ft | 487 kts | 333° |
| 2026-05-04 20:14 | 6.23936 | -77.90913 | 30902 ft | 487 kts | 333° |
| 2026-05-04 20:15 | 6.26961 | -77.92463 | 31098 ft | 486 kts | 333° |
| 2026-05-04 20:15 | 6.29976 | -77.94009 | 31308 ft | 484 kts | 333° |
| 2026-05-04 20:15 | 6.32974 | -77.95546 | 31493 ft | 484 kts | 333° |
| 2026-05-04 20:15 | 6.35941 | -77.97067 | 31636 ft | 484 kts | 333° |
| 2026-05-04 20:16 | 6.38947 | -77.98609 | 31772 ft | 484 kts | 333° |
| 2026-05-04 20:16 | 6.44975 | -78.01700 | 31856 ft | 485 kts | 333° |
| 2026-05-04 20:17 | 6.50994 | -78.04788 | 31870 ft | 485 kts | 333° |
| 2026-05-04 20:17 | 6.56966 | -78.07852 | 31863 ft | 484 kts | 333° |
| 2026-05-04 20:18 | 6.62991 | -78.10945 | 31868 ft | 484 kts | 333° |
| 2026-05-04 20:18 | 6.68952 | -78.14006 | 31863 ft | 484 kts | 333° |
| 2026-05-04 20:19 | 6.74970 | -78.17097 | 31866 ft | 484 kts | 333° |
| 2026-05-04 20:19 | 6.80965 | -78.20176 | 31866 ft | 484 kts | 333° |
| 2026-05-04 20:20 | 6.86936 | -78.23245 | 31862 ft | 484 kts | 333° |
| 2026-05-04 20:20 | 6.92955 | -78.26339 | 31864 ft | 484 kts | 333° |
| 2026-05-04 20:21 | 6.98923 | -78.29407 | 31864 ft | 484 kts | 333° |
| 2026-05-04 20:21 | 7.07946 | -78.34049 | 31861 ft | 484 kts | 333° |
| 2026-05-04 20:22 | 7.13923 | -78.37124 | 31861 ft | 484 kts | 333° |
| 2026-05-04 20:22 | 7.19926 | -78.40214 | 31860 ft | 484 kts | 333° |
| 2026-05-04 20:23 | 7.25939 | -78.43310 | 31862 ft | 484 kts | 333° |
| 2026-05-04 20:23 | 7.31900 | -78.46379 | 31861 ft | 483 kts | 333° |
| 2026-05-04 20:24 | 7.37895 | -78.49468 | 31862 ft | 483 kts | 333° |
| 2026-05-04 20:24 | 7.43879 | -78.52552 | 31863 ft | 482 kts | 334° |
| 2026-05-04 20:25 | 7.49810 | -78.55609 | 31860 ft | 481 kts | 334° |
| 2026-05-04 20:25 | 7.55771 | -78.58683 | 31862 ft | 479 kts | 334° |
| 2026-05-04 20:26 | 7.61712 | -78.61747 | 31858 ft | 478 kts | 334° |
| 2026-05-04 20:26 | 7.67598 | -78.64784 | 31862 ft | 477 kts | 334° |
| 2026-05-04 20:27 | 7.73503 | -78.67831 | 31855 ft | 476 kts | 334° |
| 2026-05-04 20:27 | 7.79410 | -78.70881 | 31858 ft | 475 kts | 334° |
| 2026-05-04 20:28 | 7.85267 | -78.73906 | 31860 ft | 474 kts | 334° |
| 2026-05-04 20:28 | 7.91147 | -78.76944 | 31861 ft | 474 kts | 334° |
| 2026-05-04 20:29 | 7.96996 | -78.79966 | 31861 ft | 473 kts | 334° |
| 2026-05-04 20:29 | 8.02877 | -78.83006 | 31858 ft | 473 kts | 334° |
| 2026-05-04 20:30 | 8.08727 | -78.86031 | 31857 ft | 473 kts | 334° |
| 2026-05-04 20:30 | 8.14601 | -78.89070 | 31859 ft | 474 kts | 334° |
| 2026-05-04 20:31 | 8.20444 | -78.92093 | 31856 ft | 474 kts | 334° |
| 2026-05-04 20:31 | 8.26294 | -78.95121 | 31859 ft | 475 kts | 334° |
| 2026-05-04 20:32 | 8.32185 | -78.98171 | 31851 ft | 475 kts | 334° |
| 2026-05-04 20:32 | 8.38079 | -79.01224 | 31855 ft | 476 kts | 334° |
| 2026-05-04 20:33 | 8.43959 | -79.04271 | 31852 ft | 476 kts | 333° |
| 2026-05-04 20:33 | 8.49861 | -79.07330 | 31856 ft | 476 kts | 333° |
| 2026-05-04 20:34 | 8.55778 | -79.10398 | 31851 ft | 477 kts | 333° |
| 2026-05-04 20:34 | 8.61654 | -79.13446 | 31856 ft | 477 kts | 333° |
| 2026-05-04 20:35 | 8.67557 | -79.16509 | 31853 ft | 478 kts | 333° |
| 2026-05-04 20:35 | 8.71096 | -79.18346 | 31856 ft | 478 kts | 333° |
| 2026-05-04 20:36 | 8.77029 | -79.21426 | 31860 ft | 478 kts | 333° |
| 2026-05-04 20:36 | 8.82932 | -79.24492 | 31860 ft | 478 kts | 333° |
| 2026-05-04 20:37 | 8.88851 | -79.27568 | 31859 ft | 477 kts | 333° |
| 2026-05-04 20:37 | 8.94720 | -79.30618 | 31861 ft | 476 kts | 333° |
| 2026-05-04 20:38 | 9.00612 | -79.33681 | 31863 ft | 475 kts | 333° |
| 2026-05-04 20:38 | 9.06490 | -79.36738 | 31862 ft | 474 kts | 333° |
| 2026-05-04 20:39 | 9.12320 | -79.39772 | 31850 ft | 472 kts | 333° |
| 2026-05-04 20:39 | 9.18163 | -79.42813 | 31859 ft | 471 kts | 333° |
| 2026-05-04 20:40 | 9.23997 | -79.45851 | 31859 ft | 469 kts | 333° |
| 2026-05-04 20:40 | 9.29783 | -79.48864 | 31871 ft | 470 kts | 334° |
| 2026-05-04 20:41 | 9.35606 | -79.51899 | 31872 ft | 469 kts | 333° |
| 2026-05-04 20:41 | 9.41384 | -79.54911 | 31873 ft | 468 kts | 333° |
| 2026-05-04 20:42 | 9.47166 | -79.57927 | 31871 ft | 466 kts | 333° |
| 2026-05-04 20:42 | 9.52936 | -79.60937 | 31869 ft | 465 kts | 333° |
| 2026-05-04 20:43 | 9.58660 | -79.63923 | 31881 ft | 464 kts | 333° |
| 2026-05-04 20:43 | 9.64417 | -79.66929 | 31874 ft | 464 kts | 333° |
| 2026-05-04 20:44 | 9.70123 | -79.69909 | 31880 ft | 464 kts | 333° |
| 2026-05-04 20:44 | 9.75875 | -79.72914 | 31877 ft | 465 kts | 333° |
| 2026-05-04 20:45 | 9.81636 | -79.75925 | 31875 ft | 466 kts | 333° |
| 2026-05-04 20:45 | 9.87372 | -79.78925 | 31881 ft | 467 kts | 333° |
| 2026-05-04 20:46 | 9.93184 | -79.81966 | 31879 ft | 469 kts | 333° |
| 2026-05-04 20:46 | 9.98950 | -79.84983 | 31880 ft | 470 kts | 333° |
| 2026-05-04 20:47 | 10.04779 | -79.88035 | 31875 ft | 471 kts | 333° |
| 2026-05-04 20:47 | 10.10593 | -79.91080 | 31880 ft | 472 kts | 333° |
| 2026-05-04 20:48 | 10.16439 | -79.94143 | 31874 ft | 472 kts | 333° |
| 2026-05-04 20:48 | 10.22290 | -79.97210 | 31885 ft | 472 kts | 333° |
| 2026-05-04 20:49 | 10.28110 | -80.00262 | 31884 ft | 472 kts | 333° |
| 2026-05-04 20:49 | 10.33954 | -80.03327 | 31878 ft | 471 kts | 333° |
| 2026-05-04 20:50 | 10.39742 | -80.06365 | 31886 ft | 470 kts | 333° |
| 2026-05-04 20:50 | 10.45568 | -80.09424 | 31887 ft | 469 kts | 333° |
| 2026-05-04 20:51 | 10.51378 | -80.12476 | 31885 ft | 469 kts | 333° |
| 2026-05-04 20:51 | 10.57134 | -80.15500 | 31887 ft | 468 kts | 333° |
| 2026-05-04 20:52 | 10.62920 | -80.18542 | 31882 ft | 467 kts | 333° |
| 2026-05-04 20:52 | 10.68705 | -80.21585 | 31881 ft | 467 kts | 333° |
| 2026-05-04 20:53 | 10.74445 | -80.24605 | 31890 ft | 467 kts | 332° |
| 2026-05-04 20:53 | 10.80223 | -80.27646 | 31881 ft | 466 kts | 332° |
| 2026-05-04 20:54 | 10.85971 | -80.30674 | 31892 ft | 466 kts | 332° |
| 2026-05-04 20:54 | 10.91746 | -80.33716 | 31885 ft | 466 kts | 332° |
| 2026-05-04 20:55 | 10.97510 | -80.36755 | 31891 ft | 466 kts | 332° |
| 2026-05-04 20:55 | 11.03235 | -80.39774 | 31889 ft | 465 kts | 332° |
| 2026-05-04 20:56 | 11.08987 | -80.42808 | 31887 ft | 465 kts | 332° |
| 2026-05-04 20:56 | 11.13774 | -80.45334 | 31892 ft | 465 kts | 332° |
| 2026-05-04 20:57 | 11.20462 | -80.48866 | 31888 ft | 464 kts | 332° |
| 2026-05-04 20:57 | 11.25244 | -80.51392 | 31891 ft | 464 kts | 332° |
| 2026-05-04 20:58 | 11.30992 | -80.54430 | 31894 ft | 464 kts | 332° |
| 2026-05-04 20:58 | 11.36700 | -80.57447 | 31895 ft | 464 kts | 332° |
| 2026-05-04 20:59 | 11.42434 | -80.60481 | 31895 ft | 464 kts | 332° |
| 2026-05-04 20:59 | 11.48181 | -80.63522 | 31891 ft | 464 kts | 332° |
| 2026-05-04 21:00 | 11.53896 | -80.66547 | 31897 ft | 464 kts | 332° |
| 2026-05-04 21:00 | 11.59640 | -80.69590 | 31892 ft | 465 kts | 332° |
| 2026-05-04 21:01 | 11.65358 | -80.72620 | 31895 ft | 465 kts | 331° |
| 2026-05-04 21:01 | 11.71122 | -80.75676 | 31901 ft | 465 kts | 331° |
| 2026-05-04 21:02 | 11.76846 | -80.78712 | 31897 ft | 466 kts | 331° |
| 2026-05-04 21:02 | 11.82591 | -80.81761 | 31902 ft | 466 kts | 331° |
| 2026-05-04 21:03 | 11.88360 | -80.84824 | 31898 ft | 467 kts | 331° |
| 2026-05-04 21:03 | 11.94123 | -80.87885 | 31899 ft | 467 kts | 331° |
| 2026-05-04 21:04 | 11.99863 | -80.90936 | 31892 ft | 467 kts | 331° |
| 2026-05-04 21:04 | 12.05641 | -80.94008 | 31904 ft | 467 kts | 331° |
| 2026-05-04 21:05 | 12.11420 | -80.97082 | 31900 ft | 468 kts | 331° |
| 2026-05-04 21:05 | 12.17202 | -81.00160 | 31904 ft | 468 kts | 331° |
| 2026-05-04 21:06 | 12.22949 | -81.03219 | 31904 ft | 468 kts | 331° |
| 2026-05-04 21:06 | 12.28752 | -81.06311 | 31900 ft | 468 kts | 331° |
| 2026-05-04 21:07 | 12.34533 | -81.09392 | 31904 ft | 468 kts | 331° |
| 2026-05-04 21:07 | 12.40295 | -81.12465 | 31907 ft | 468 kts | 331° |
| 2026-05-04 21:08 | 12.46079 | -81.15551 | 31908 ft | 468 kts | 331° |
| 2026-05-04 21:08 | 12.51861 | -81.18638 | 31911 ft | 468 kts | 331° |
| 2026-05-04 21:09 | 12.57608 | -81.21707 | 31906 ft | 468 kts | 331° |
| 2026-05-04 21:09 | 12.63396 | -81.24800 | 31911 ft | 468 kts | 331° |
| 2026-05-04 21:10 | 12.69129 | -81.27865 | 31910 ft | 468 kts | 331° |
| 2026-05-04 21:10 | 12.74902 | -81.30953 | 31912 ft | 467 kts | 331° |
| 2026-05-04 21:11 | 12.80675 | -81.34042 | 31912 ft | 467 kts | 331° |
| 2026-05-04 21:11 | 12.86440 | -81.37129 | 31908 ft | 467 kts | 331° |
| 2026-05-04 21:12 | 12.92163 | -81.40195 | 31914 ft | 467 kts | 331° |
| 2026-05-04 21:12 | 12.97923 | -81.43283 | 31914 ft | 466 kts | 331° |
| 2026-05-04 21:13 | 13.03679 | -81.46370 | 31921 ft | 466 kts | 331° |
| 2026-05-04 21:13 | 13.09410 | -81.49445 | 31920 ft | 466 kts | 331° |
| 2026-05-04 21:14 | 13.15147 | -81.52526 | 31927 ft | 466 kts | 331° |
| 2026-05-04 21:14 | 13.20904 | -81.55618 | 31927 ft | 467 kts | 331° |
| 2026-05-04 21:15 | 13.26671 | -81.58717 | 31929 ft | 467 kts | 331° |
| 2026-05-04 21:15 | 13.32406 | -81.61801 | 31925 ft | 467 kts | 331° |
| 2026-05-04 21:16 | 13.38175 | -81.64905 | 31926 ft | 467 kts | 331° |
| 2026-05-04 21:16 | 13.43907 | -81.67991 | 31924 ft | 467 kts | 331° |
| 2026-05-04 21:17 | 13.49671 | -81.71095 | 31918 ft | 467 kts | 331° |
| 2026-05-04 21:17 | 13.55400 | -81.74183 | 31920 ft | 467 kts | 331° |
| 2026-05-04 21:18 | 13.61175 | -81.77297 | 31926 ft | 467 kts | 331° |
| 2026-05-04 21:18 | 13.66930 | -81.80402 | 31926 ft | 467 kts | 331° |
| 2026-05-04 21:19 | 13.72646 | -81.83487 | 31922 ft | 466 kts | 330° |
| 2026-05-04 21:19 | 13.78405 | -81.86598 | 31922 ft | 466 kts | 330° |
| 2026-05-04 21:20 | 13.84160 | -81.89708 | 31923 ft | 466 kts | 330° |
| 2026-05-04 21:20 | 13.89868 | -81.92794 | 31928 ft | 466 kts | 330° |
| 2026-05-04 21:21 | 13.95607 | -81.95899 | 31925 ft | 465 kts | 330° |
| 2026-05-04 21:21 | 14.01346 | -81.99006 | 31926 ft | 465 kts | 330° |
| 2026-05-04 21:22 | 14.07038 | -82.02089 | 31925 ft | 465 kts | 330° |
| 2026-05-04 21:22 | 14.12777 | -82.05199 | 31929 ft | 465 kts | 330° |
| 2026-05-04 21:23 | 14.18502 | -82.08303 | 31928 ft | 464 kts | 330° |
| 2026-05-04 21:23 | 14.24196 | -82.11392 | 31928 ft | 464 kts | 330° |
| 2026-05-04 21:24 | 14.29924 | -82.14502 | 31929 ft | 464 kts | 330° |
| 2026-05-04 21:24 | 14.35609 | -82.17590 | 31925 ft | 464 kts | 330° |
| 2026-05-04 21:25 | 14.41321 | -82.20694 | 31931 ft | 464 kts | 330° |
| 2026-05-04 21:25 | 14.47035 | -82.23802 | 31933 ft | 464 kts | 330° |
| 2026-05-04 21:26 | 14.52740 | -82.26906 | 31930 ft | 463 kts | 330° |
| 2026-05-04 21:26 | 14.58444 | -82.30011 | 31931 ft | 463 kts | 330° |
| 2026-05-04 21:27 | 14.64153 | -82.33122 | 31931 ft | 463 kts | 330° |
| 2026-05-04 21:27 | 14.69816 | -82.36209 | 31933 ft | 463 kts | 330° |
| 2026-05-04 21:28 | 14.75518 | -82.39319 | 31934 ft | 462 kts | 330° |
| 2026-05-04 21:28 | 14.81215 | -82.42428 | 31936 ft | 462 kts | 330° |
| 2026-05-04 21:29 | 14.86882 | -82.45522 | 31934 ft | 462 kts | 330° |
| 2026-05-04 21:29 | 14.92544 | -82.48616 | 31932 ft | 462 kts | 330° |
| 2026-05-04 21:30 | 14.98229 | -82.51725 | 31935 ft | 461 kts | 330° |
| 2026-05-04 21:30 | 15.03914 | -82.54834 | 31936 ft | 461 kts | 330° |
| 2026-05-04 21:31 | 15.12412 | -82.59487 | 31936 ft | 461 kts | 330° |
| 2026-05-04 21:32 | 15.18091 | -82.62598 | 31932 ft | 461 kts | 330° |
| 2026-05-04 21:32 | 15.23779 | -82.65717 | 31937 ft | 461 kts | 330° |
| 2026-05-04 21:33 | 15.29426 | -82.68815 | 31937 ft | 461 kts | 330° |
| 2026-05-04 21:33 | 15.35107 | -82.71933 | 31940 ft | 462 kts | 330° |
| 2026-05-04 21:34 | 15.40795 | -82.75057 | 31941 ft | 462 kts | 330° |
| 2026-05-04 21:34 | 15.46451 | -82.78166 | 31939 ft | 462 kts | 330° |
| 2026-05-04 21:35 | 15.52149 | -82.81299 | 31937 ft | 462 kts | 330° |
| 2026-05-04 21:35 | 15.57809 | -82.84414 | 31942 ft | 462 kts | 330° |
| 2026-05-04 21:36 | 15.63495 | -82.87544 | 31939 ft | 462 kts | 330° |
| 2026-05-04 21:36 | 15.69154 | -82.90662 | 31943 ft | 462 kts | 330° |
| 2026-05-04 21:37 | 15.74836 | -82.93795 | 31941 ft | 462 kts | 330° |
| 2026-05-04 21:37 | 15.80528 | -82.96935 | 31944 ft | 461 kts | 330° |
| 2026-05-04 21:38 | 15.86203 | -83.00068 | 31946 ft | 461 kts | 330° |
| 2026-05-04 21:38 | 15.91840 | -83.03181 | 31945 ft | 460 kts | 330° |
| 2026-05-04 21:39 | 15.97495 | -83.06307 | 31949 ft | 460 kts | 330° |
| 2026-05-04 21:39 | 16.03145 | -83.09432 | 31949 ft | 459 kts | 329° |
| 2026-05-04 21:40 | 16.08786 | -83.12554 | 31949 ft | 459 kts | 329° |
| 2026-05-04 21:40 | 16.14393 | -83.15659 | 31947 ft | 458 kts | 329° |
| 2026-05-04 21:41 | 16.20029 | -83.18782 | 31948 ft | 457 kts | 329° |
| 2026-05-04 21:41 | 16.25611 | -83.21878 | 31947 ft | 457 kts | 329° |
| 2026-05-04 21:42 | 16.31231 | -83.24996 | 31948 ft | 456 kts | 329° |
| 2026-05-04 21:42 | 16.36849 | -83.28116 | 31952 ft | 456 kts | 329° |
| 2026-05-04 21:43 | 16.42406 | -83.31203 | 31947 ft | 456 kts | 329° |
| 2026-05-04 21:43 | 16.48015 | -83.34322 | 31951 ft | 455 kts | 329° |
| 2026-05-04 21:44 | 16.53584 | -83.37420 | 31952 ft | 455 kts | 329° |
| 2026-05-04 21:44 | 16.58237 | -83.40011 | 31948 ft | 455 kts | 329° |
| 2026-05-04 21:45 | 16.63795 | -83.43107 | 31955 ft | 454 kts | 329° |
| 2026-05-04 21:45 | 16.69377 | -83.46218 | 31955 ft | 454 kts | 329° |
| 2026-05-04 21:46 | 16.74958 | -83.49331 | 31956 ft | 454 kts | 329° |
| 2026-05-04 21:46 | 16.80528 | -83.52440 | 31953 ft | 453 kts | 329° |
| 2026-05-04 21:47 | 16.86057 | -83.55528 | 31952 ft | 453 kts | 329° |
| 2026-05-04 21:47 | 16.91621 | -83.58637 | 31954 ft | 453 kts | 329° |
| 2026-05-04 21:48 | 16.97180 | -83.61746 | 31955 ft | 453 kts | 329° |
| 2026-05-04 21:48 | 17.02715 | -83.64844 | 31957 ft | 452 kts | 329° |
| 2026-05-04 21:49 | 17.08240 | -83.67938 | 31955 ft | 452 kts | 329° |
| 2026-05-04 21:49 | 17.13798 | -83.71053 | 31958 ft | 452 kts | 329° |
| 2026-05-04 21:50 | 17.19349 | -83.74166 | 31960 ft | 452 kts | 329° |
| 2026-05-04 21:50 | 17.24856 | -83.77256 | 31963 ft | 451 kts | 329° |
| 2026-05-04 21:51 | 17.30395 | -83.80367 | 31958 ft | 451 kts | 329° |
| 2026-05-04 21:51 | 17.35937 | -83.83481 | 31958 ft | 451 kts | 329° |
| 2026-05-04 21:52 | 17.41447 | -83.86579 | 31959 ft | 451 kts | 329° |
| 2026-05-04 21:52 | 17.46987 | -83.89697 | 31961 ft | 451 kts | 329° |
| 2026-05-04 21:53 | 17.52531 | -83.92819 | 31962 ft | 451 kts | 329° |
| 2026-05-04 21:53 | 17.58050 | -83.95928 | 31964 ft | 452 kts | 329° |
| 2026-05-04 21:54 | 17.63602 | -83.99059 | 31963 ft | 452 kts | 329° |
| 2026-05-04 21:54 | 17.69110 | -84.02167 | 31961 ft | 451 kts | 329° |
| 2026-05-04 21:55 | 17.74648 | -84.05295 | 31963 ft | 451 kts | 329° |
| 2026-05-04 21:55 | 17.80147 | -84.08402 | 31965 ft | 451 kts | 329° |
| 2026-05-04 21:56 | 17.85686 | -84.11534 | 31960 ft | 450 kts | 329° |
| 2026-05-04 21:56 | 17.91208 | -84.14659 | 31963 ft | 450 kts | 329° |
| 2026-05-04 21:57 | 17.96686 | -84.17761 | 31961 ft | 449 kts | 328° |
| 2026-05-04 21:57 | 18.02199 | -84.20885 | 31963 ft | 448 kts | 329° |
| 2026-05-04 21:58 | 18.07657 | -84.23981 | 31967 ft | 447 kts | 329° |
| 2026-05-04 21:58 | 18.13142 | -84.27094 | 31966 ft | 447 kts | 329° |
| 2026-05-04 21:59 | 18.18592 | -84.30189 | 31965 ft | 446 kts | 329° |
| 2026-05-04 21:59 | 18.24067 | -84.33301 | 31966 ft | 446 kts | 329° |
| 2026-05-04 22:00 | 18.29493 | -84.36387 | 31966 ft | 445 kts | 329° |
| 2026-05-04 22:00 | 18.34953 | -84.39495 | 31966 ft | 445 kts | 329° |
| 2026-05-04 22:01 | 18.40401 | -84.42599 | 31966 ft | 444 kts | 329° |
| 2026-05-04 22:01 | 18.45823 | -84.45689 | 31967 ft | 444 kts | 329° |
| 2026-05-04 22:02 | 18.51265 | -84.48806 | 31966 ft | 444 kts | 327° |
| 2026-05-04 22:02 | 18.56116 | -84.52674 | 31976 ft | 439 kts | 316° |
| 2026-05-04 22:03 | 18.60704 | -84.56971 | 31967 ft | 439 kts | 316° |
| 2026-05-04 22:03 | 18.65257 | -84.61234 | 31968 ft | 440 kts | 316° |
| 2026-05-04 22:04 | 18.69857 | -84.65504 | 31964 ft | 440 kts | 317° |
| 2026-05-04 22:04 | 18.74455 | -84.69756 | 31971 ft | 439 kts | 317° |
| 2026-05-04 22:05 | 18.79021 | -84.73977 | 31973 ft | 439 kts | 317° |
| 2026-05-04 22:05 | 18.83614 | -84.78226 | 31967 ft | 438 kts | 317° |
| 2026-05-04 22:06 | 18.88203 | -84.82476 | 31967 ft | 438 kts | 317° |
| 2026-05-04 22:06 | 18.92792 | -84.86729 | 31968 ft | 438 kts | 317° |
| 2026-05-04 22:07 | 18.97348 | -84.90956 | 31968 ft | 438 kts | 317° |
| 2026-05-04 22:07 | 19.01939 | -84.95218 | 31966 ft | 438 kts | 317° |
| 2026-05-04 22:08 | 19.06490 | -84.99445 | 31968 ft | 438 kts | 316° |
| 2026-05-04 22:08 | 19.11069 | -85.03703 | 31969 ft | 438 kts | 316° |
| 2026-05-04 22:09 | 19.15629 | -85.07945 | 31966 ft | 438 kts | 316° |
| 2026-05-04 22:09 | 19.20210 | -85.12210 | 31969 ft | 438 kts | 316° |
| 2026-05-04 22:10 | 19.24783 | -85.16472 | 31969 ft | 438 kts | 316° |
| 2026-05-04 22:10 | 19.29333 | -85.20715 | 31967 ft | 438 kts | 316° |
| 2026-05-04 22:11 | 19.33908 | -85.24985 | 31967 ft | 437 kts | 316° |
| 2026-05-04 22:11 | 19.38474 | -85.29249 | 31970 ft | 437 kts | 317° |
| 2026-05-04 22:12 | 19.43011 | -85.33490 | 31968 ft | 436 kts | 317° |
| 2026-05-04 22:12 | 19.47558 | -85.37743 | 31966 ft | 435 kts | 317° |
| 2026-05-04 22:13 | 19.52094 | -85.41991 | 31968 ft | 434 kts | 317° |
| 2026-05-04 22:13 | 19.56630 | -85.46240 | 31967 ft | 434 kts | 317° |
| 2026-05-04 22:14 | 19.61125 | -85.50455 | 31966 ft | 433 kts | 317° |
| 2026-05-04 22:14 | 19.65640 | -85.54692 | 31973 ft | 432 kts | 317° |
| 2026-05-04 22:15 | 19.70125 | -85.58904 | 31970 ft | 432 kts | 317° |
| 2026-05-04 22:15 | 19.74641 | -85.63149 | 31967 ft | 432 kts | 317° |
| 2026-05-04 22:16 | 19.79123 | -85.67365 | 31969 ft | 432 kts | 317° |
| 2026-05-04 22:16 | 19.83595 | -85.71575 | 31967 ft | 432 kts | 317° |
| 2026-05-04 22:17 | 19.88094 | -85.75814 | 31967 ft | 432 kts | 317° |
| 2026-05-04 22:17 | 19.92604 | -85.80066 | 31968 ft | 432 kts | 317° |
| 2026-05-04 22:18 | 19.97076 | -85.84286 | 31968 ft | 432 kts | 317° |
| 2026-05-04 22:18 | 20.01586 | -85.88545 | 31970 ft | 433 kts | 317° |
| 2026-05-04 22:19 | 20.06081 | -85.92817 | 31966 ft | 433 kts | 317° |
| 2026-05-04 22:19 | 20.10548 | -85.97098 | 31968 ft | 433 kts | 317° |
| 2026-05-04 22:20 | 20.15020 | -86.01387 | 31968 ft | 434 kts | 317° |
| 2026-05-04 22:20 | 20.19507 | -86.05691 | 31966 ft | 434 kts | 317° |
| 2026-05-04 22:21 | 20.24008 | -86.10011 | 31967 ft | 434 kts | 317° |
| 2026-05-04 22:21 | 20.28502 | -86.14326 | 31964 ft | 434 kts | 317° |
| 2026-05-04 22:22 | 20.32965 | -86.18616 | 31967 ft | 435 kts | 317° |
| 2026-05-04 22:22 | 20.37470 | -86.22949 | 31969 ft | 434 kts | 317° |
| 2026-05-04 22:23 | 20.41940 | -86.27247 | 31962 ft | 434 kts | 317° |
| 2026-05-04 22:23 | 20.46425 | -86.31562 | 31966 ft | 434 kts | 317° |
| 2026-05-04 22:24 | 20.50914 | -86.35885 | 31963 ft | 434 kts | 317° |
| 2026-05-04 22:24 | 20.55394 | -86.40203 | 31964 ft | 434 kts | 317° |
| 2026-05-04 22:25 | 20.59843 | -86.44496 | 31965 ft | 433 kts | 317° |
| 2026-05-04 22:25 | 20.64327 | -86.48827 | 31969 ft | 433 kts | 317° |
| 2026-05-04 22:26 | 20.68774 | -86.53125 | 31966 ft | 433 kts | 317° |
| 2026-05-04 22:26 | 20.73242 | -86.57447 | 31964 ft | 433 kts | 317° |
| 2026-05-04 22:27 | 20.77713 | -86.61775 | 31964 ft | 433 kts | 317° |
| 2026-05-04 22:27 | 20.82169 | -86.66102 | 31968 ft | 432 kts | 317° |
| 2026-05-04 22:28 | 20.86601 | -86.70411 | 31972 ft | 432 kts | 316° |
| 2026-05-04 22:28 | 20.91053 | -86.74743 | 31976 ft | 432 kts | 316° |
| 2026-05-04 22:29 | 20.95484 | -86.79058 | 31980 ft | 432 kts | 316° |
| 2026-05-04 22:29 | 20.99917 | -86.83379 | 31984 ft | 432 kts | 316° |
| 2026-05-04 22:30 | 21.04627 | -86.87372 | 31978 ft | 433 kts | 327° |
| 2026-05-04 22:30 | 21.09823 | -86.90668 | 31983 ft | 433 kts | 327° |
| 2026-05-04 22:31 | 21.15029 | -86.93951 | 31980 ft | 433 kts | 327° |
| 2026-05-04 22:31 | 21.20186 | -86.97239 | 31975 ft | 433 kts | 327° |
| 2026-05-04 22:32 | 21.25365 | -87.00562 | 31970 ft | 433 kts | 326° |
| 2026-05-04 22:32 | 21.30530 | -87.03883 | 31975 ft | 433 kts | 326° |
| 2026-05-04 22:33 | 21.35676 | -87.07195 | 31962 ft | 433 kts | 326° |
| 2026-05-04 22:33 | 21.40849 | -87.10528 | 31959 ft | 432 kts | 326° |
| 2026-05-04 22:34 | 21.45986 | -87.13839 | 31956 ft | 432 kts | 326° |
| 2026-05-04 22:34 | 21.50283 | -87.16611 | 31968 ft | 431 kts | 326° |
| 2026-05-04 22:35 | 21.55404 | -87.19916 | 31962 ft | 431 kts | 326° |
| 2026-05-04 22:35 | 21.60555 | -87.23244 | 31959 ft | 431 kts | 326° |
| 2026-05-04 22:36 | 21.65693 | -87.26567 | 31960 ft | 430 kts | 326° |
| 2026-05-04 22:36 | 21.70805 | -87.29875 | 31962 ft | 430 kts | 325° |
| 2026-05-04 22:37 | 21.75945 | -87.33204 | 31956 ft | 430 kts | 325° |
| 2026-05-04 22:37 | 21.81058 | -87.36519 | 31958 ft | 430 kts | 325° |
| 2026-05-04 22:38 | 21.86192 | -87.39850 | 31961 ft | 430 kts | 325° |
| 2026-05-04 22:38 | 21.91330 | -87.43187 | 31962 ft | 430 kts | 324° |
| 2026-05-04 22:39 | 21.96438 | -87.46507 | 31962 ft | 431 kts | 324° |
| 2026-05-04 22:39 | 22.01587 | -87.49856 | 31966 ft | 431 kts | 324° |
| 2026-05-04 22:40 | 22.06728 | -87.53204 | 31962 ft | 431 kts | 324° |
| 2026-05-04 22:40 | 22.11846 | -87.56539 | 31962 ft | 432 kts | 324° |
| 2026-05-04 22:41 | 22.16996 | -87.59898 | 31959 ft | 432 kts | 324° |
| 2026-05-04 22:41 | 22.22121 | -87.63244 | 31959 ft | 432 kts | 324° |
| 2026-05-04 22:42 | 22.27198 | -87.66723 | 31962 ft | 430 kts | 321° |
| 2026-05-04 22:42 | 22.32102 | -87.70445 | 31962 ft | 430 kts | 320° |
| 2026-05-04 22:43 | 22.36945 | -87.74168 | 31964 ft | 430 kts | 320° |
| 2026-05-04 22:43 | 22.41834 | -87.77899 | 31961 ft | 429 kts | 320° |
| 2026-05-04 22:44 | 22.46699 | -87.81593 | 31964 ft | 429 kts | 320° |
| 2026-05-04 22:44 | 22.51597 | -87.85307 | 31967 ft | 429 kts | 320° |
| 2026-05-04 22:45 | 22.56486 | -87.89018 | 31965 ft | 429 kts | 320° |
| 2026-05-04 22:45 | 22.63774 | -87.94556 | 31969 ft | 428 kts | 320° |
| 2026-05-04 22:46 | 22.68661 | -87.98275 | 31966 ft | 428 kts | 320° |
| 2026-05-04 22:46 | 22.73513 | -88.01970 | 31968 ft | 427 kts | 320° |
| 2026-05-04 22:47 | 22.78386 | -88.05684 | 31971 ft | 427 kts | 320° |
| 2026-05-04 22:47 | 22.83227 | -88.09378 | 31971 ft | 427 kts | 320° |
| 2026-05-04 22:48 | 22.88084 | -88.13086 | 31972 ft | 427 kts | 320° |
| 2026-05-04 22:48 | 22.92949 | -88.16804 | 31971 ft | 427 kts | 320° |
| 2026-05-04 22:49 | 22.97784 | -88.20502 | 31970 ft | 427 kts | 319° |
| 2026-05-04 22:49 | 23.02647 | -88.24226 | 31975 ft | 427 kts | 319° |
| 2026-05-04 22:50 | 23.07497 | -88.27942 | 31980 ft | 426 kts | 319° |
| 2026-05-04 22:50 | 23.12313 | -88.31636 | 31977 ft | 426 kts | 319° |
| 2026-05-04 22:51 | 23.17158 | -88.35356 | 31976 ft | 426 kts | 319° |
| 2026-05-04 22:51 | 23.22017 | -88.39091 | 32029 ft | 430 kts | 319° |
| 2026-05-04 22:52 | 23.24443 | -88.40957 | 32179 ft | 431 kts | 319° |
| 2026-05-04 22:52 | 23.26903 | -88.42850 | 32478 ft | 429 kts | 319° |
| 2026-05-04 22:52 | 23.29339 | -88.44722 | 32839 ft | 426 kts | 319° |
| 2026-05-04 22:52 | 23.31722 | -88.46554 | 33187 ft | 423 kts | 319° |
| 2026-05-04 22:53 | 23.34123 | -88.48403 | 33481 ft | 422 kts | 319° |
| 2026-05-04 22:53 | 23.36521 | -88.50251 | 33739 ft | 421 kts | 319° |
| 2026-05-04 22:53 | 23.38914 | -88.52096 | 34022 ft | 419 kts | 319° |
| 2026-05-04 22:53 | 23.41288 | -88.53927 | 34276 ft | 417 kts | 319° |
| 2026-05-04 22:54 | 23.43628 | -88.55734 | 34450 ft | 417 kts | 319° |
| 2026-05-04 22:54 | 23.46003 | -88.57569 | 34612 ft | 418 kts | 319° |
| 2026-05-04 22:54 | 23.48375 | -88.59402 | 34808 ft | 417 kts | 319° |
| 2026-05-04 22:54 | 23.50745 | -88.61234 | 35006 ft | 416 kts | 319° |
| 2026-05-04 22:55 | 23.53119 | -88.63069 | 35166 ft | 417 kts | 319° |
| 2026-05-04 22:55 | 23.55461 | -88.64881 | 35295 ft | 418 kts | 318° |
| 2026-05-04 22:55 | 23.57833 | -88.66717 | 35472 ft | 417 kts | 318° |
| 2026-05-04 22:55 | 23.60208 | -88.68555 | 35677 ft | 416 kts | 318° |
| 2026-05-04 22:56 | 23.62544 | -88.70364 | 35843 ft | 416 kts | 318° |
| 2026-05-04 22:56 | 23.64910 | -88.72198 | 35950 ft | 417 kts | 318° |
| 2026-05-04 22:56 | 23.69650 | -88.75872 | 35980 ft | 416 kts | 318° |
| 2026-05-04 22:57 | 23.74345 | -88.79516 | 35988 ft | 416 kts | 317° |
| 2026-05-04 22:57 | 23.79073 | -88.83189 | 35991 ft | 416 kts | 317° |
| 2026-05-04 22:58 | 23.83804 | -88.86868 | 35989 ft | 417 kts | 317° |
| 2026-05-04 22:58 | 23.88504 | -88.90525 | 35990 ft | 416 kts | 317° |
| 2026-05-04 22:59 | 23.93225 | -88.94202 | 35988 ft | 416 kts | 317° |
| 2026-05-04 22:59 | 23.97952 | -88.97888 | 35991 ft | 416 kts | 317° |
| 2026-05-04 23:00 | 24.02632 | -89.01541 | 35987 ft | 415 kts | 317° |
| 2026-05-04 23:00 | 24.07345 | -89.05222 | 35987 ft | 414 kts | 317° |
| 2026-05-04 23:01 | 24.12005 | -89.08878 | 35988 ft | 413 kts | 316° |
| 2026-05-04 23:01 | 24.16647 | -89.12583 | 35990 ft | 411 kts | 316° |
| 2026-05-04 23:02 | 24.21236 | -89.16261 | 35990 ft | 411 kts | 316° |
| 2026-05-04 23:02 | 24.25856 | -89.19963 | 35990 ft | 410 kts | 316° |
| 2026-05-04 23:03 | 24.30440 | -89.23637 | 35990 ft | 409 kts | 316° |
| 2026-05-04 23:03 | 24.35042 | -89.27326 | 35990 ft | 409 kts | 316° |
| 2026-05-04 23:04 | 24.39635 | -89.31015 | 36006 ft | 409 kts | 316° |
| 2026-05-04 23:04 | 24.44244 | -89.34716 | 36001 ft | 411 kts | 316° |
| 2026-05-04 23:05 | 24.48870 | -89.38435 | 35999 ft | 413 kts | 316° |
| 2026-05-04 23:05 | 24.53497 | -89.42157 | 35991 ft | 414 kts | 316° |
| 2026-05-04 23:06 | 24.58145 | -89.45900 | 35995 ft | 414 kts | 316° |
| 2026-05-04 23:06 | 24.62797 | -89.49649 | 35994 ft | 414 kts | 316° |
| 2026-05-04 23:07 | 24.67415 | -89.53374 | 35997 ft | 413 kts | 316° |
| 2026-05-04 23:07 | 24.72049 | -89.57116 | 35995 ft | 412 kts | 316° |
| 2026-05-04 23:08 | 24.76642 | -89.60828 | 35999 ft | 410 kts | 316° |
| 2026-05-04 23:08 | 24.81244 | -89.64551 | 35999 ft | 409 kts | 316° |
| 2026-05-04 23:09 | 24.85804 | -89.68245 | 36001 ft | 408 kts | 316° |
| 2026-05-04 23:09 | 24.90376 | -89.71952 | 36000 ft | 407 kts | 316° |
| 2026-05-04 23:10 | 24.94917 | -89.75636 | 36002 ft | 406 kts | 316° |
| 2026-05-04 23:10 | 24.99468 | -89.79333 | 36000 ft | 406 kts | 316° |
| 2026-05-04 23:11 | 25.01746 | -89.81185 | 35880 ft | 406 kts | 317° |
| 2026-05-04 23:11 | 25.03983 | -89.83015 | 35940 ft | 403 kts | 321° |
| 2026-05-04 23:11 | 25.08494 | -89.86682 | 35997 ft | 401 kts | 321° |
| 2026-05-04 23:12 | 25.12988 | -89.90337 | 36004 ft | 400 kts | 321° |
| 2026-05-04 23:12 | 25.17448 | -89.93971 | 36001 ft | 399 kts | 321° |
| 2026-05-04 23:13 | 25.21920 | -89.97620 | 36004 ft | 399 kts | 321° |
| 2026-05-04 23:13 | 25.26368 | -90.01252 | 36003 ft | 399 kts | 321° |
| 2026-05-04 23:14 | 25.30831 | -90.04901 | 36002 ft | 399 kts | 321° |
| 2026-05-04 23:14 | 25.35274 | -90.08537 | 36006 ft | 399 kts | 321° |
| 2026-05-04 23:15 | 25.39720 | -90.12179 | 36008 ft | 399 kts | 321° |
| 2026-05-04 23:15 | 25.44189 | -90.15842 | 36007 ft | 399 kts | 321° |
| 2026-05-04 23:16 | 25.48663 | -90.19513 | 36007 ft | 400 kts | 321° |
| 2026-05-04 23:16 | 25.53107 | -90.23164 | 36004 ft | 400 kts | 321° |
| 2026-05-04 23:17 | 25.57585 | -90.26845 | 36007 ft | 400 kts | 321° |
| 2026-05-04 23:17 | 25.62044 | -90.30515 | 36008 ft | 400 kts | 321° |
| 2026-05-04 23:18 | 25.66521 | -90.34203 | 36010 ft | 400 kts | 321° |
| 2026-05-04 23:18 | 25.71001 | -90.37896 | 36006 ft | 400 kts | 321° |
| 2026-05-04 23:19 | 25.75442 | -90.41561 | 36003 ft | 400 kts | 321° |
| 2026-05-04 23:19 | 25.79917 | -90.45258 | 36005 ft | 400 kts | 321° |
| 2026-05-04 23:20 | 25.84383 | -90.48951 | 36006 ft | 399 kts | 321° |
| 2026-05-04 23:20 | 25.88827 | -90.52629 | 36006 ft | 399 kts | 321° |
| 2026-05-04 23:21 | 25.92531 | -90.55698 | 36008 ft | 398 kts | 321° |
| 2026-05-04 23:21 | 25.97708 | -90.59990 | 36007 ft | 398 kts | 321° |
| 2026-05-04 23:22 | 26.01403 | -90.63057 | 36009 ft | 397 kts | 321° |
| 2026-05-04 23:22 | 26.05833 | -90.66737 | 36009 ft | 397 kts | 321° |
| 2026-05-04 23:23 | 26.10233 | -90.70396 | 36009 ft | 397 kts | 321° |
| 2026-05-04 23:23 | 26.14654 | -90.74076 | 36009 ft | 396 kts | 321° |
| 2026-05-04 23:24 | 26.19074 | -90.77759 | 36010 ft | 396 kts | 321° |
| 2026-05-04 23:24 | 26.23485 | -90.81437 | 36008 ft | 396 kts | 321° |
| 2026-05-04 23:25 | 26.27870 | -90.85098 | 36008 ft | 395 kts | 321° |
| 2026-05-04 23:25 | 26.32278 | -90.88781 | 36008 ft | 395 kts | 320° |
| 2026-05-04 23:26 | 26.36657 | -90.92443 | 36014 ft | 395 kts | 320° |
| 2026-05-04 23:26 | 26.41053 | -90.96124 | 36010 ft | 395 kts | 320° |
| 2026-05-04 23:27 | 26.45452 | -90.99810 | 36011 ft | 394 kts | 320° |
| 2026-05-04 23:27 | 26.49816 | -91.03471 | 36014 ft | 394 kts | 320° |
| 2026-05-04 23:28 | 26.54212 | -91.07162 | 36011 ft | 394 kts | 320° |
| 2026-05-04 23:28 | 26.58562 | -91.10818 | 36011 ft | 394 kts | 320° |
| 2026-05-04 23:29 | 26.62942 | -91.14503 | 36015 ft | 393 kts | 320° |
| 2026-05-04 23:29 | 26.67325 | -91.18195 | 36013 ft | 393 kts | 320° |
| 2026-05-04 23:30 | 26.71675 | -91.21862 | 36016 ft | 393 kts | 320° |
| 2026-05-04 23:30 | 26.76055 | -91.25558 | 36016 ft | 393 kts | 320° |
| 2026-05-04 23:31 | 26.80400 | -91.29228 | 36016 ft | 393 kts | 320° |
| 2026-05-04 23:31 | 26.84762 | -91.32916 | 36013 ft | 393 kts | 320° |
| 2026-05-04 23:32 | 26.89124 | -91.36607 | 36016 ft | 392 kts | 320° |
| 2026-05-04 23:32 | 26.93484 | -91.40300 | 36016 ft | 392 kts | 320° |
| 2026-05-04 23:33 | 26.97810 | -91.43968 | 36013 ft | 392 kts | 320° |
| 2026-05-04 23:33 | 27.02157 | -91.47659 | 36014 ft | 391 kts | 320° |
| 2026-05-04 23:34 | 27.06506 | -91.51353 | 36014 ft | 391 kts | 320° |
| 2026-05-04 23:34 | 27.10818 | -91.55021 | 36011 ft | 391 kts | 320° |
| 2026-05-04 23:35 | 27.15169 | -91.58725 | 36012 ft | 391 kts | 319° |
| 2026-05-04 23:35 | 27.19502 | -91.62418 | 36009 ft | 390 kts | 319° |
| 2026-05-04 23:36 | 27.23810 | -91.66093 | 36007 ft | 390 kts | 319° |
| 2026-05-04 23:36 | 27.28138 | -91.69789 | 36009 ft | 390 kts | 319° |
| 2026-05-04 23:37 | 27.32463 | -91.73486 | 36005 ft | 390 kts | 319° |
| 2026-05-04 23:37 | 27.36781 | -91.77181 | 36005 ft | 390 kts | 319° |
| 2026-05-04 23:38 | 27.41076 | -91.80859 | 36006 ft | 390 kts | 319° |
| 2026-05-04 23:38 | 27.45402 | -91.84568 | 36009 ft | 390 kts | 319° |
| 2026-05-04 23:39 | 27.49721 | -91.88275 | 36005 ft | 390 kts | 319° |
| 2026-05-04 23:39 | 27.54021 | -91.91969 | 36006 ft | 390 kts | 319° |
| 2026-05-04 23:40 | 27.58312 | -91.95659 | 36003 ft | 389 kts | 319° |
| 2026-05-04 23:40 | 27.62625 | -91.99371 | 36003 ft | 389 kts | 319° |
| 2026-05-04 23:41 | 27.66917 | -92.03070 | 36006 ft | 389 kts | 319° |
| 2026-05-04 23:41 | 27.71227 | -92.06788 | 36002 ft | 389 kts | 319° |
| 2026-05-04 23:42 | 27.75527 | -92.10500 | 36004 ft | 389 kts | 319° |
| 2026-05-04 23:42 | 27.79803 | -92.14197 | 36002 ft | 388 kts | 319° |
| 2026-05-04 23:43 | 27.84082 | -92.17899 | 36004 ft | 388 kts | 319° |
| 2026-05-04 23:43 | 27.88374 | -92.21616 | 36003 ft | 388 kts | 319° |
| 2026-05-04 23:44 | 27.92643 | -92.25318 | 36001 ft | 388 kts | 319° |
| 2026-05-04 23:44 | 27.96935 | -92.29042 | 36005 ft | 387 kts | 318° |
| 2026-05-04 23:45 | 28.01193 | -92.32742 | 35997 ft | 387 kts | 318° |
| 2026-05-04 23:45 | 28.05444 | -92.36439 | 35995 ft | 387 kts | 318° |
| 2026-05-04 23:46 | 28.09710 | -92.40153 | 35995 ft | 386 kts | 318° |
| 2026-05-04 23:46 | 28.13972 | -92.43868 | 35997 ft | 386 kts | 318° |
| 2026-05-04 23:47 | 28.18233 | -92.47586 | 35993 ft | 386 kts | 318° |
| 2026-05-04 23:47 | 28.22469 | -92.51285 | 35994 ft | 385 kts | 318° |
| 2026-05-04 23:48 | 28.26686 | -92.55004 | 35995 ft | 385 kts | 317° |
| 2026-05-04 23:48 | 28.30850 | -92.58845 | 35990 ft | 384 kts | 316° |
| 2026-05-04 23:49 | 28.34969 | -92.62678 | 35988 ft | 384 kts | 317° |
| 2026-05-04 23:49 | 28.39113 | -92.66526 | 35990 ft | 384 kts | 317° |
| 2026-05-04 23:50 | 28.43270 | -92.70382 | 35991 ft | 384 kts | 317° |
| 2026-05-04 23:50 | 28.47396 | -92.74209 | 35993 ft | 384 kts | 317° |
| 2026-05-04 23:51 | 28.51555 | -92.78068 | 35988 ft | 384 kts | 316° |
| 2026-05-04 23:51 | 28.55677 | -92.81898 | 35988 ft | 384 kts | 316° |
| 2026-05-04 23:52 | 28.59822 | -92.85753 | 35985 ft | 384 kts | 316° |
| 2026-05-04 23:52 | 28.63944 | -92.89590 | 35989 ft | 384 kts | 316° |
| 2026-05-04 23:53 | 28.68069 | -92.93434 | 35989 ft | 384 kts | 316° |
| 2026-05-04 23:53 | 28.72204 | -92.97292 | 35984 ft | 383 kts | 316° |
| 2026-05-04 23:54 | 28.76340 | -93.01154 | 35981 ft | 383 kts | 316° |
| 2026-05-04 23:54 | 28.80444 | -93.04992 | 35982 ft | 383 kts | 316° |
| 2026-05-04 23:55 | 28.84574 | -93.08857 | 35979 ft | 383 kts | 316° |
| 2026-05-04 23:56 | 28.90753 | -93.14647 | 35982 ft | 383 kts | 316° |
| 2026-05-04 23:56 | 28.94842 | -93.18485 | 35979 ft | 383 kts | 316° |
| 2026-05-04 23:57 | 28.98963 | -93.22356 | 35978 ft | 383 kts | 316° |
| 2026-05-04 23:57 | 29.03062 | -93.26210 | 35980 ft | 382 kts | 316° |
| 2026-05-04 23:58 | 29.07173 | -93.30081 | 35978 ft | 382 kts | 316° |
| 2026-05-04 23:58 | 29.11290 | -93.33961 | 35980 ft | 382 kts | 316° |
| 2026-05-04 23:59 | 29.15380 | -93.37819 | 35983 ft | 382 kts | 316° |
| 2026-05-04 23:59 | 29.19490 | -93.41700 | 35982 ft | 382 kts | 316° |
| 2026-05-05 00:00 | 29.23591 | -93.45578 | 35985 ft | 382 kts | 316° |
| 2026-05-05 00:00 | 29.27679 | -93.49446 | 35985 ft | 382 kts | 316° |
| 2026-05-05 00:01 | 29.31781 | -93.53333 | 35986 ft | 382 kts | 316° |
| 2026-05-05 00:01 | 29.35880 | -93.57220 | 35984 ft | 382 kts | 316° |
| 2026-05-05 00:02 | 29.39976 | -93.61110 | 35984 ft | 382 kts | 316° |
| 2026-05-05 00:02 | 29.44048 | -93.64980 | 35987 ft | 381 kts | 316° |
| 2026-05-05 00:03 | 29.48122 | -93.68857 | 35985 ft | 381 kts | 316° |
| 2026-05-05 00:03 | 29.52210 | -93.72751 | 35983 ft | 381 kts | 316° |
| 2026-05-05 00:04 | 29.56289 | -93.76641 | 35978 ft | 381 kts | 316° |
| 2026-05-05 00:04 | 29.60348 | -93.80515 | 35987 ft | 380 kts | 316° |
| 2026-05-05 00:05 | 29.64418 | -93.84405 | 35981 ft | 380 kts | 316° |
| 2026-05-05 00:05 | 29.68488 | -93.88299 | 35973 ft | 380 kts | 316° |
| 2026-05-05 00:06 | 29.72541 | -93.92180 | 35971 ft | 380 kts | 316° |
| 2026-05-05 00:06 | 29.76586 | -93.96059 | 35967 ft | 380 kts | 316° |
| 2026-05-05 00:07 | 29.80659 | -93.99968 | 35967 ft | 380 kts | 316° |
| 2026-05-05 00:07 | 29.84699 | -94.03850 | 35966 ft | 380 kts | 316° |
| 2026-05-05 00:08 | 29.88770 | -94.07766 | 35964 ft | 380 kts | 316° |
| 2026-05-05 00:08 | 29.92142 | -94.11014 | 35966 ft | 380 kts | 316° |
| 2026-05-05 00:09 | 29.96201 | -94.14926 | 35965 ft | 379 kts | 316° |
| 2026-05-05 00:09 | 30.00240 | -94.18823 | 35964 ft | 379 kts | 316° |
| 2026-05-05 00:10 | 30.04293 | -94.22739 | 35963 ft | 379 kts | 316° |
| 2026-05-05 00:10 | 30.08339 | -94.26651 | 35963 ft | 379 kts | 315° |
| 2026-05-05 00:11 | 30.12363 | -94.30547 | 35965 ft | 379 kts | 315° |
| 2026-05-05 00:11 | 30.16410 | -94.34470 | 35963 ft | 379 kts | 315° |
| 2026-05-05 00:12 | 30.20432 | -94.38372 | 35960 ft | 378 kts | 315° |
| 2026-05-05 00:12 | 30.24473 | -94.42297 | 35949 ft | 378 kts | 315° |
| 2026-05-05 00:13 | 30.28480 | -94.46194 | 35944 ft | 378 kts | 315° |
| 2026-05-05 00:13 | 30.32512 | -94.50119 | 35943 ft | 378 kts | 315° |
| 2026-05-05 00:14 | 30.36508 | -94.54013 | 35948 ft | 377 kts | 315° |
| 2026-05-05 00:14 | 30.40531 | -94.57938 | 35937 ft | 377 kts | 315° |
| 2026-05-05 00:15 | 30.44530 | -94.61845 | 35936 ft | 377 kts | 315° |
| 2026-05-05 00:15 | 30.48552 | -94.65778 | 35944 ft | 377 kts | 315° |
| 2026-05-05 00:16 | 30.52548 | -94.69689 | 35928 ft | 377 kts | 315° |
| 2026-05-05 00:16 | 30.56561 | -94.73623 | 35930 ft | 377 kts | 315° |
| 2026-05-05 00:17 | 30.60568 | -94.77554 | 35934 ft | 377 kts | 315° |
| 2026-05-05 00:17 | 30.64552 | -94.81467 | 35931 ft | 377 kts | 315° |
| 2026-05-05 00:18 | 30.68556 | -94.85404 | 35929 ft | 376 kts | 315° |
| 2026-05-05 00:18 | 30.72556 | -94.89342 | 35926 ft | 376 kts | 315° |
| 2026-05-05 00:19 | 30.76539 | -94.93267 | 35921 ft | 376 kts | 315° |
| 2026-05-05 00:19 | 30.80529 | -94.97205 | 35920 ft | 375 kts | 315° |
| 2026-05-05 00:20 | 30.84489 | -95.01116 | 35917 ft | 375 kts | 315° |
| 2026-05-05 00:20 | 30.88465 | -95.05047 | 35917 ft | 375 kts | 315° |
| 2026-05-05 00:21 | 30.92438 | -95.08981 | 35914 ft | 374 kts | 315° |
| 2026-05-05 00:21 | 30.96385 | -95.12893 | 35912 ft | 374 kts | 315° |
| 2026-05-05 00:22 | 31.00351 | -95.16829 | 35909 ft | 373 kts | 315° |
| 2026-05-05 00:22 | 31.04289 | -95.20740 | 35902 ft | 373 kts | 314° |
| 2026-05-05 00:23 | 31.08255 | -95.24684 | 35898 ft | 373 kts | 314° |
| 2026-05-05 00:23 | 31.12188 | -95.28601 | 35897 ft | 374 kts | 314° |
| 2026-05-05 00:24 | 31.16147 | -95.32547 | 35894 ft | 374 kts | 314° |
| 2026-05-05 00:24 | 31.20088 | -95.36479 | 35888 ft | 374 kts | 314° |
| 2026-05-05 00:25 | 31.24048 | -95.40436 | 35893 ft | 374 kts | 314° |
| 2026-05-05 00:25 | 31.28004 | -95.44392 | 35892 ft | 373 kts | 314° |
| 2026-05-05 00:26 | 31.31952 | -95.48345 | 35893 ft | 373 kts | 314° |
| 2026-05-05 00:26 | 31.35875 | -95.52278 | 35886 ft | 373 kts | 314° |
| 2026-05-05 00:27 | 31.39828 | -95.56246 | 35893 ft | 373 kts | 314° |
| 2026-05-05 00:27 | 31.43749 | -95.60184 | 35897 ft | 372 kts | 314° |
| 2026-05-05 00:28 | 31.47683 | -95.64142 | 35886 ft | 372 kts | 314° |
| 2026-05-05 00:28 | 31.51610 | -95.68097 | 35881 ft | 372 kts | 314° |
| 2026-05-05 00:29 | 31.55507 | -95.72026 | 35884 ft | 371 kts | 314° |
| 2026-05-05 00:29 | 31.59433 | -95.75989 | 35878 ft | 371 kts | 314° |
| 2026-05-05 00:30 | 31.63317 | -95.79915 | 35882 ft | 371 kts | 314° |
| 2026-05-05 00:30 | 31.67232 | -95.83875 | 35878 ft | 370 kts | 314° |
| 2026-05-05 00:30 | 31.69190 | -95.85860 | 35566 ft | 376 kts | 314° |
| 2026-05-05 00:31 | 31.71155 | -95.87853 | 35062 ft | 374 kts | 314° |
| 2026-05-05 00:31 | 31.73126 | -95.89849 | 34400 ft | 374 kts | 314° |
| 2026-05-05 00:31 | 31.75094 | -95.91845 | 33729 ft | 374 kts | 314° |
| 2026-05-05 00:31 | 31.77070 | -95.93850 | 33098 ft | 372 kts | 314° |
| 2026-05-05 00:32 | 31.79020 | -95.95830 | 32592 ft | 368 kts | 314° |
| 2026-05-05 00:32 | 31.80924 | -95.97763 | 32110 ft | 364 kts | 314° |
| 2026-05-05 00:32 | 31.82836 | -95.99706 | 31633 ft | 360 kts | 314° |
| 2026-05-05 00:32 | 31.84771 | -96.01575 | 31107 ft | 361 kts | 319° |
| 2026-05-05 00:33 | 31.86888 | -96.03179 | 30490 ft | 366 kts | 322° |
| 2026-05-05 00:33 | 31.89058 | -96.04693 | 29955 ft | 358 kts | 323° |
| 2026-05-05 00:33 | 31.91180 | -96.06165 | 29443 ft | 352 kts | 322° |
| 2026-05-05 00:33 | 31.93273 | -96.07641 | 28956 ft | 348 kts | 322° |
| 2026-05-05 00:34 | 31.95334 | -96.09118 | 28495 ft | 346 kts | 322° |
| 2026-05-05 00:34 | 31.97406 | -96.10616 | 28047 ft | 354 kts | 322° |
| 2026-05-05 00:34 | 31.99526 | -96.12151 | 27569 ft | 356 kts | 322° |
| 2026-05-05 00:34 | 32.01640 | -96.13678 | 26967 ft | 356 kts | 322° |
| 2026-05-05 00:35 | 32.03717 | -96.15176 | 26500 ft | 352 kts | 322° |
| 2026-05-05 00:35 | 32.05798 | -96.16677 | 26034 ft | 349 kts | 322° |
| 2026-05-05 00:35 | 32.07863 | -96.18169 | 25587 ft | 346 kts | 322° |
| 2026-05-05 00:35 | 32.09906 | -96.19647 | 25151 ft | 342 kts | 322° |
| 2026-05-05 00:36 | 32.11933 | -96.21114 | 24722 ft | 339 kts | 322° |
| 2026-05-05 00:36 | 32.13913 | -96.22549 | 24300 ft | 336 kts | 322° |
| 2026-05-05 00:36 | 32.15901 | -96.23990 | 23877 ft | 334 kts | 322° |
| 2026-05-05 00:36 | 32.17874 | -96.25422 | 23463 ft | 331 kts | 322° |
| 2026-05-05 00:37 | 32.19834 | -96.26845 | 22956 ft | 329 kts | 323° |
| 2026-05-05 00:37 | 32.21778 | -96.28257 | 22506 ft | 327 kts | 323° |
| 2026-05-05 00:37 | 32.23707 | -96.29658 | 22089 ft | 324 kts | 323° |
| 2026-05-05 00:37 | 32.25617 | -96.31045 | 21657 ft | 321 kts | 323° |
| 2026-05-05 00:38 | 32.27508 | -96.32440 | 21242 ft | 319 kts | 320° |
| 2026-05-05 00:38 | 32.29210 | -96.34117 | 20697 ft | 318 kts | 313° |
| 2026-05-05 00:38 | 32.30804 | -96.35959 | 20279 ft | 322 kts | 312° |
| 2026-05-05 00:38 | 32.32388 | -96.37830 | 19849 ft | 329 kts | 312° |
| 2026-05-05 00:39 | 32.34016 | -96.39745 | 19422 ft | 330 kts | 312° |
| 2026-05-05 00:39 | 32.35655 | -96.41656 | 19004 ft | 328 kts | 313° |
| 2026-05-05 00:39 | 32.37284 | -96.43543 | 18575 ft | 327 kts | 313° |
| 2026-05-05 00:39 | 32.38908 | -96.45417 | 18147 ft | 326 kts | 313° |
| 2026-05-05 00:40 | 32.40532 | -96.47289 | 17682 ft | 325 kts | 313° |
| 2026-05-05 00:40 | 32.42128 | -96.49127 | 17264 ft | 323 kts | 313° |
| 2026-05-05 00:40 | 32.43722 | -96.50962 | 16971 ft | 317 kts | 313° |
| 2026-05-05 00:40 | 32.45294 | -96.52773 | 16631 ft | 313 kts | 313° |
| 2026-05-05 00:41 | 32.46855 | -96.54572 | 16409 ft | 310 kts | 313° |
| 2026-05-05 00:41 | 32.48387 | -96.56338 | 16265 ft | 304 kts | 313° |
| 2026-05-05 00:41 | 32.49922 | -96.58104 | 15879 ft | 311 kts | 313° |
| 2026-05-05 00:41 | 32.51489 | -96.59899 | 15513 ft | 313 kts | 313° |
| 2026-05-05 00:42 | 32.53032 | -96.61664 | 15144 ft | 311 kts | 313° |
| 2026-05-05 00:42 | 32.54581 | -96.63438 | 14779 ft | 309 kts | 313° |
| 2026-05-05 00:42 | 32.56123 | -96.65205 | 14410 ft | 307 kts | 313° |
| 2026-05-05 00:42 | 32.57662 | -96.66960 | 14018 ft | 306 kts | 313° |
| 2026-05-05 00:43 | 32.59210 | -96.68703 | 13634 ft | 306 kts | 313° |
| 2026-05-05 00:43 | 32.60731 | -96.70411 | 13462 ft | 297 kts | 313° |
| 2026-05-05 00:43 | 32.62199 | -96.72062 | 13316 ft | 289 kts | 313° |
| 2026-05-05 00:43 | 32.63636 | -96.73680 | 13182 ft | 280 kts | 313° |
| 2026-05-05 00:44 | 32.65031 | -96.75253 | 13057 ft | 272 kts | 313° |
| 2026-05-05 00:44 | 32.66385 | -96.76783 | 12945 ft | 264 kts | 313° |
| 2026-05-05 00:44 | 32.67703 | -96.78276 | 12854 ft | 260 kts | 313° |
| 2026-05-05 00:44 | 32.68998 | -96.79746 | 12774 ft | 263 kts | 313° |
| 2026-05-05 00:45 | 32.70338 | -96.81271 | 12686 ft | 269 kts | 313° |
| 2026-05-05 00:45 | 32.71700 | -96.82820 | 12586 ft | 271 kts | 313° |
| 2026-05-05 00:45 | 32.73043 | -96.84345 | 12473 ft | 268 kts | 313° |
| 2026-05-05 00:45 | 32.74371 | -96.85851 | 12359 ft | 259 kts | 312° |
| 2026-05-05 00:46 | 32.75653 | -96.87306 | 12262 ft | 250 kts | 312° |
| 2026-05-05 00:46 | 32.76896 | -96.88718 | 12162 ft | 241 kts | 312° |
| 2026-05-05 00:46 | 32.78087 | -96.90070 | 12075 ft | 233 kts | 312° |
| 2026-05-05 00:46 | 32.79371 | -96.91204 | 11982 ft | 235 kts | 324° |
| 2026-05-05 00:47 | 32.80800 | -96.92134 | 11772 ft | 234 kts | 328° |
| 2026-05-05 00:47 | 32.82289 | -96.92966 | 11440 ft | 237 kts | 329° |
| 2026-05-05 00:47 | 32.83804 | -96.93789 | 11140 ft | 239 kts | 329° |
| 2026-05-05 00:47 | 32.85293 | -96.94595 | 10899 ft | 237 kts | 329° |
| 2026-05-05 00:48 | 32.86796 | -96.95404 | 10642 ft | 236 kts | 330° |
| 2026-05-05 00:48 | 32.88298 | -96.96212 | 10347 ft | 237 kts | 329° |
| 2026-05-05 00:48 | 32.89805 | -96.97019 | 10089 ft | 237 kts | 329° |
| 2026-05-05 00:48 | 32.91306 | -96.97823 | 9857 ft | 235 kts | 330° |
| 2026-05-05 00:49 | 32.92783 | -96.98614 | 9588 ft | 236 kts | 329° |
| 2026-05-05 00:49 | 32.94274 | -96.99412 | 9314 ft | 235 kts | 329° |
| 2026-05-05 00:49 | 32.95768 | -97.00211 | 9058 ft | 234 kts | 330° |
| 2026-05-05 00:49 | 32.97250 | -97.01007 | 8795 ft | 234 kts | 330° |
| 2026-05-05 00:50 | 32.98742 | -97.01810 | 8498 ft | 234 kts | 329° |
| 2026-05-05 00:50 | 33.00231 | -97.02611 | 8230 ft | 235 kts | 330° |
| 2026-05-05 00:50 | 33.01700 | -97.03402 | 8000 ft | 234 kts | 330° |
| 2026-05-05 00:50 | 33.03187 | -97.04220 | 7746 ft | 233 kts | 325° |
| 2026-05-05 00:51 | 33.04511 | -97.05294 | 7439 ft | 227 kts | 318° |
| 2026-05-05 00:51 | 33.05768 | -97.06400 | 7085 ft | 227 kts | 318° |
| 2026-05-05 00:51 | 33.07041 | -97.07525 | 6731 ft | 227 kts | 318° |
| 2026-05-05 00:51 | 33.08321 | -97.08660 | 6386 ft | 231 kts | 317° |
| 2026-05-05 00:52 | 33.09549 | -97.09845 | 6213 ft | 223 kts | 313° |
| 2026-05-05 00:52 | 33.10721 | -97.11063 | 5795 ft | 224 kts | 313° |
| 2026-05-05 00:52 | 33.11872 | -97.12309 | 5352 ft | 226 kts | 307° |
| 2026-05-05 00:52 | 33.12887 | -97.13752 | 4916 ft | 226 kts | 297° |
| 2026-05-05 00:53 | 33.13446 | -97.15420 | 4603 ft | 211 kts | 275° |
| 2026-05-05 00:53 | 33.13683 | -97.17146 | 4190 ft | 211 kts | 272° |
| 2026-05-05 00:53 | 33.13928 | -97.18903 | 3682 ft | 218 kts | 272° |
| 2026-05-05 00:53 | 33.13972 | -97.20676 | 3260 ft | 208 kts | 246° |
| 2026-05-05 00:54 | 33.13485 | -97.22256 | 3088 ft | 199 kts | 243° |
| 2026-05-05 00:54 | 33.12842 | -97.23662 | 3003 ft | 192 kts | 217° |
| 2026-05-05 00:54 | 33.11647 | -97.24237 | 3016 ft | 187 kts | 192° |
| 2026-05-05 00:54 | 33.10347 | -97.24384 | 2999 ft | 187 kts | 182° |
| 2026-05-05 00:55 | 33.09076 | -97.24378 | 2975 ft | 176 kts | 181° |
| 2026-05-05 00:55 | 33.07899 | -97.24082 | 2769 ft | 174 kts | 162° |
| 2026-05-05 00:55 | 33.06788 | -97.23511 | 2433 ft | 174 kts | 162° |
| 2026-05-05 00:55 | 33.06058 | -97.23157 | 2375 ft | 170 kts | 163° |
| 2026-05-05 00:56 | 33.04962 | -97.22565 | 2312 ft | 174 kts | 153° |
| 2026-05-05 00:56 | 33.04010 | -97.21700 | 2303 ft | 170 kts | 149° |
| 2026-05-05 00:56 | 33.03121 | -97.20839 | 2280 ft | 159 kts | 147° |
| 2026-05-05 00:56 | 33.02283 | -97.19997 | 2291 ft | 156 kts | 147° |
| 2026-05-05 00:57 | 33.01456 | -97.19153 | 2280 ft | 155 kts | 147° |
| 2026-05-05 00:57 | 33.00630 | -97.18303 | 2289 ft | 158 kts | 148° |
| 2026-05-05 00:57 | 32.99794 | -97.17441 | 2283 ft | 160 kts | 148° |
| 2026-05-05 00:57 | 32.98962 | -97.16583 | 2294 ft | 161 kts | 147° |
| 2026-05-05 00:58 | 32.98108 | -97.15703 | 2292 ft | 163 kts | 147° |
| 2026-05-05 00:58 | 32.97245 | -97.14809 | 2208 ft | 166 kts | 146° |
| 2026-05-05 00:58 | 32.96370 | -97.13903 | 2018 ft | 166 kts | 146° |
| 2026-05-05 00:58 | 32.95518 | -97.13023 | 1801 ft | 155 kts | 146° |
| 2026-05-05 00:59 | 32.94761 | -97.12240 | 1649 ft | 139 kts | 145° |
| 2026-05-05 00:59 | 32.94046 | -97.11502 | 1451 ft | 135 kts | 144° |
| 2026-05-05 00:59 | 32.93328 | -97.10760 | 1266 ft | 138 kts | 144° |
| 2026-05-05 00:59 | 32.92598 | -97.09996 | 1100 ft | 141 kts | 143° |
| 2026-05-05 01:00 | 32.91833 | -97.09215 | 877 ft | 145 kts | 143° |
| 2026-05-05 01:00 | 32.91075 | -97.08435 | 675 ft | 142 kts | 143° |
| 2026-05-05 01:00 | 32.90380 | -97.07712 | 601 ft | 114 kts | 144° |
| 2026-05-05 01:00 | 32.89938 | -97.07263 | 595 ft | 55 kts | 137° |
| 2026-05-05 01:01 | 32.89702 | -97.07018 | 597 ft | 33 kts | 134° |
| 2026-05-05 01:01 | 32.89589 | -97.06811 | 596 ft | 25 kts | 111° |
| 2026-05-05 01:01 | 32.89538 | -97.06638 | 593 ft | 22 kts | 108° |
| 2026-05-05 01:01 | 32.89491 | -97.06473 | 591 ft | 21 kts | 109° |
| 2026-05-05 01:02 | 32.89428 | -97.06321 | 591 ft | 20 kts | 134° |
| 2026-05-05 01:02 | 32.89323 | -97.06211 | 591 ft | 20 kts | 140° |
| 2026-05-05 01:02 | 32.89221 | -97.06105 | 593 ft | 19 kts | 140° |
| 2026-05-05 01:02 | 32.89121 | -97.06004 | 590 ft | 20 kts | 139° |
| 2026-05-05 01:03 | 32.89024 | -97.05894 | 599 ft | 14 kts | 120° |
| 2026-05-05 01:03 | 32.89040 | -97.05791 | 600 ft | 13 kts | 69° |
| 2026-05-05 01:03 | 32.89047 | -97.05684 | 600 ft | 13 kts | 89° |
| 2026-05-05 01:03 | 32.89048 | -97.05580 | 600 ft | 12 kts | 91° |
| 2026-05-05 01:04 | 32.89047 | -97.05479 | 600 ft | 12 kts | 87° |
| 2026-05-05 01:04 | 32.89045 | -97.05201 | 591 ft | 23 kts | 90° |
| 2026-05-05 01:04 | 32.89045 | -97.05010 | 593 ft | 23 kts | 90° |
| 2026-05-05 01:05 | 32.89044 | -97.04855 | 595 ft | 15 kts | 91° |
| 2026-05-05 01:05 | 32.89096 | -97.04771 | 597 ft | 14 kts | 7° |
| 2026-05-05 01:05 | 32.89193 | -97.04769 | 597 ft | 14 kts | 0° |
| 2026-05-05 01:05 | 32.89285 | -97.04768 | 597 ft | 13 kts | 0° |
| 2026-05-05 01:06 | 32.89369 | -97.04768 | 597 ft | 11 kts | 0° |
| 2026-05-05 01:06 | 32.89442 | -97.04767 | 597 ft | 10 kts | 0° |
| 2026-05-05 01:06 | 32.89504 | -97.04750 | 597 ft | 9 kts | 57° |
| 2026-05-05 01:06 | 32.89481 | -97.04688 | 597 ft | 9 kts | 124° |
| 2026-05-05 01:07 | 32.89448 | -97.04630 | 597 ft | 8 kts | 124° |
| 2026-05-05 01:07 | 32.89429 | -97.04566 | 597 ft | 8 kts | 97° |
| 2026-05-05 01:07 | 32.89430 | -97.04503 | 597 ft | 7 kts | 86° |
| 2026-05-05 01:07 | 32.89455 | -97.04458 | 597 ft | 7 kts | 36° |
| 2026-05-05 01:08 | 32.89494 | -97.04453 | 597 ft | 5 kts | 358° |
| 2026-05-05 01:08 | 32.89510 | -97.04453 | 597 ft | 0 kts | 1° |